Jinan, China
Current Conditions -  °F | °C
As of 2:00 PM on Wednesday 28 Jan 2015 (Local Time) from ZSJN Reporting Station
Clear Clear  
Wind Chill: 28°   Ceiling: Unl
Heat Index: 34°   Visibility: 6mi
Dew Point: 14°   Wind: 7mph
Humidity: 44%   Direction: 100°E
Pressure: 30.48"   Gusts: NA
Location:  36.67°N, 117°E
Report Text: ZSJN 280600Z 10003MPS 050V140 CAVOK 01/M10 Q1032 NOSIG
Loading
Personal Weather Stations






























Interactive Weather Map New forecast layout! Learn more

10-Day Weather Forecast

Advertisements
Track Severe Weather on mobile